Time;durP1;ratioP1;P1;durP2;ratioP2;P2;SDS_P1;SDS_P2;PMS_P1;PMS_P2;Temp;Humidity;BMP_temperature;BMP_pressure;BME280_temperature;BME280_humidity;BME280_pressure;Samples;Min_cycle;Max_cycle;Signal;HPM_P1;HPM_P2
2023/02/18 00:02:12;;;;;;;25.97;13.97;;;11.10;99.90;;;;;;4988677;28;20469;-70
2023/02/18 00:04:40;;;;;;;17.53;12.30;;;11.00;99.90;;;;;;4997859;28;20472;-69
2023/02/18 00:07:07;;;;;;;17.77;11.13;;;11.10;99.90;;;;;;5002360;28;20743;-70
2023/02/18 00:09:34;;;;;;;19.47;9.87;;;11.10;99.90;;;;;;4992080;28;20561;-69
2023/02/18 00:12:02;;;;;;;19.47;10.87;;;11.10;99.90;;;;;;4991760;28;20436;-70
2023/02/18 00:14:29;;;;;;;28.80;13.13;;;11.10;99.90;;;;;;4991922;28;20449;-69
2023/02/18 00:16:57;;;;;;;25.87;13.17;;;11.10;99.90;;;;;;4983974;28;20472;-69
2023/02/18 00:19:24;;;;;;;27.20;11.43;;;11.10;99.90;;;;;;4986353;28;20863;-68
2023/02/18 00:21:53;;;;;;;32.20;14.90;;;11.10;99.90;;;;;;4994616;28;20766;-70
2023/02/18 00:24:21;;;;;;;36.07;16.37;;;11.20;99.90;;;;;;4987592;28;20437;-69
2023/02/18 00:26:51;;;;;;;22.97;14.47;;;11.20;99.90;;;;;;4978118;28;20549;-70
2023/02/18 00:29:21;;;;;;;27.10;14.23;;;11.20;99.90;;;;;;4981647;28;21092;-70
2023/02/18 00:31:48;;;;;;;33.33;15.10;;;11.10;99.90;;;;;;5000502;28;20579;-70
2023/02/18 00:34:16;;;;;;;31.20;15.57;;;11.30;99.90;;;;;;4990151;28;20436;-69
2023/02/18 00:36:43;;;;;;;46.40;15.60;;;11.40;99.90;;;;;;4993259;28;20459;-70
2023/02/18 00:39:12;;;;;;;43.53;20.17;;;11.30;99.90;;;;;;4991290;28;20542;-70
2023/02/18 00:41:39;;;;;;;39.77;20.90;;;11.30;99.90;;;;;;4994642;28;20490;-70
2023/02/18 00:44:07;;;;;;;43.87;20.40;;;11.40;99.90;;;;;;5001184;28;20437;-70
2023/02/18 00:46:35;;;;;;;37.77;19.30;;;11.40;99.90;;;;;;4995144;28;20493;-70
2023/02/18 00:49:02;;;;;;;35.10;17.50;;;11.40;99.90;;;;;;4983753;28;20477;-70
2023/02/18 00:51:29;;;;;;;31.00;17.70;;;11.50;99.90;;;;;;4991217;28;20468;-69
2023/02/18 00:53:59;;;;;;;38.23;14.73;;;11.40;99.90;;;;;;4987991;28;20553;-69
2023/02/18 00:56:26;;;;;;;31.63;15.40;;;11.40;99.90;;;;;;5000253;28;20572;-70
2023/02/18 00:58:53;;;;;;;23.77;11.77;;;11.40;99.90;;;;;;5001046;28;20855;-70
2023/02/18 01:01:20;;;;;;;27.17;13.67;;;11.40;99.90;;;;;;5001866;28;21284;-70
2023/02/18 01:03:48;;;;;;;22.30;12.50;;;11.40;99.90;;;;;;5001286;28;20552;-69
2023/02/18 01:06:15;;;;;;;32.57;13.37;;;11.50;99.90;;;;;;5004574;28;20510;-69
2023/02/18 01:08:43;;;;;;;25.90;13.93;;;11.50;99.90;;;;;;5014323;28;20539;-67
2023/02/18 01:11:11;;;;;;;28.80;13.20;;;11.40;99.90;;;;;;5005810;28;20537;-69
2023/02/18 01:13:39;;;;;;;27.00;14.73;;;11.40;99.90;;;;;;4963967;28;20453;-70
2023/02/18 01:16:06;;;;;;;30.77;15.27;;;11.40;99.90;;;;;;4986332;28;20467;-70
2023/02/18 01:18:33;;;;;;;25.63;11.37;;;11.40;99.90;;;;;;4985615;28;20548;-70
2023/02/18 01:21:03;;;;;;;26.63;13.07;;;11.40;99.90;;;;;;4995724;28;20428;-70
2023/02/18 01:23:30;;;;;;;19.33;11.20;;;11.50;99.90;;;;;;4994962;28;20921;-70
2023/02/18 01:25:58;;;;;;;24.43;12.70;;;11.50;99.90;;;;;;4992303;28;21501;-71
2023/02/18 01:28:25;;;;;;;25.27;11.57;;;11.50;99.90;;;;;;4991602;28;20546;-69
2023/02/18 01:30:53;;;;;;;19.80;11.50;;;11.50;99.90;;;;;;4993547;28;20465;-70
2023/02/18 01:33:21;;;;;;;18.43;10.10;;;11.40;99.90;;;;;;4990138;28;20457;-71
2023/02/18 01:35:48;;;;;;;26.10;12.40;;;11.40;99.90;;;;;;4992588;28;20788;-71
2023/02/18 01:38:18;;;;;;;21.20;9.50;;;11.40;99.90;;;;;;4985157;28;20457;-68
2023/02/18 01:40:47;;;;;;;26.20;12.53;;;11.40;99.90;;;;;;4987102;28;20906;-70
2023/02/18 01:43:15;;;;;;;22.07;13.60;;;11.40;99.90;;;;;;4983081;28;20466;-71
2023/02/18 01:46:02;;;;;;;26.43;11.20;;;11.50;99.90;;;;;;4989842;28;20462;-70
2023/02/18 01:48:34;;;;;;;21.67;12.63;;;11.40;99.90;;;;;;4991290;28;21125;-70
2023/02/18 01:51:05;;;;;;;30.13;13.70;;;11.40;99.90;;;;;;4983779;28;20838;-71
2023/02/18 01:53:41;;;;;;;29.90;12.43;;;11.30;99.90;;;;;;4992093;28;20462;-69
2023/02/18 01:56:12;;;;;;;33.93;12.33;;;11.40;99.90;;;;;;4987736;28;20996;-70
2023/02/18 01:58:39;;;;;;;23.43;10.90;;;11.30;99.90;;;;;;4989489;28;20585;-70
2023/02/18 02:01:06;;;;;;;37.27;13.40;;;11.40;99.90;;;;;;4987968;28;20470;-70
2023/02/18 02:03:34;;;;;;;26.77;12.83;;;11.40;99.90;;;;;;4983492;28;20807;-69
2023/02/18 02:06:01;;;;;;;28.10;14.70;;;11.40;99.90;;;;;;4986751;28;20477;-68
2023/02/18 02:08:29;;;;;;;23.57;11.67;;;11.40;99.90;;;;;;4994063;28;20465;-70
2023/02/18 02:11:08;;;;;;;35.17;14.60;;;11.50;99.90;;;;;;4987080;28;20477;-69
2023/02/18 02:13:53;;;;;;;23.17;10.80;;;11.50;99.90;;;;;;4988382;28;20469;-70
2023/02/18 02:16:32;;;;;;;26.97;12.97;;;11.30;99.90;;;;;;4980326;28;20578;-69
2023/02/18 02:19:17;;;;;;;28.67;11.97;;;11.20;99.90;;;;;;4987975;28;20547;-70
2023/02/18 02:22:34;;;;;;;27.47;12.40;;;11.20;99.90;;;;;;4988271;28;20457;-70
2023/02/18 02:25:15;;;;;;;24.00;11.43;;;11.30;99.90;;;;;;4986863;28;20463;-70
2023/02/18 02:28:21;;;;;;;10.47;6.27;;;11.30;99.90;;;;;;4987003;28;20481;-70
2023/02/18 02:31:13;;;;;;;20.67;8.73;;;11.20;99.90;;;;;;4918448;28;20461;-70
2023/02/18 02:34:07;;;;;;;14.40;7.80;;;11.20;99.90;;;;;;4988478;28;20523;-68
2023/02/18 02:36:40;;;;;;;20.00;9.87;;;11.20;99.90;;;;;;4990146;28;20559;-69
2023/02/18 02:39:14;;;;;;;27.50;11.33;;;11.20;99.90;;;;;;4988937;28;20459;-69
2023/02/18 02:41:48;;;;;;;30.67;12.20;;;11.20;99.90;;;;;;4992558;28;20464;-70
2023/02/18 02:44:21;;;;;;;20.87;9.17;;;11.20;99.90;;;;;;4982160;28;20436;-69
2023/02/18 02:46:53;;;;;;;23.30;11.93;;;11.20;99.90;;;;;;4985974;28;20483;-68
2023/02/18 02:49:34;;;;;;;24.00;12.10;;;11.20;99.90;;;;;;4988900;28;20608;-69
2023/02/18 02:52:07;;;;;;;20.00;10.40;;;11.10;99.90;;;;;;4990693;28;20469;-69
2023/02/18 02:54:34;;;;;;;20.50;9.70;;;11.10;99.90;;;;;;4997532;28;20942;-68
2023/02/18 02:57:52;;;;;;;33.20;13.00;;;11.20;99.90;;;;;;5000237;28;20568;-70
2023/02/18 03:00:22;;;;;;;19.87;9.63;;;11.20;99.90;;;;;;4984956;28;20464;-69
2023/02/18 03:03:07;;;;;;;19.03;10.00;;;11.20;99.90;;;;;;4999270;28;20981;-69
2023/02/18 03:05:46;;;;;;;11.20;4.97;;;11.10;99.90;;;;;;4985479;28;20540;-69
2023/02/18 03:08:25;;;;;;;20.50;9.73;;;11.20;99.90;;;;;;5006728;28;20459;-68
2023/02/18 03:10:59;;;;;;;14.70;8.80;;;11.20;99.90;;;;;;4997510;28;20692;-69
2023/02/18 03:13:44;;;;;;;15.50;7.67;;;11.10;99.90;;;;;;4988498;28;21043;-69
2023/02/18 03:16:19;;;;;;;19.93;8.37;;;11.10;99.90;;;;;;4991434;28;20612;-70
2023/02/18 03:18:49;;;;;;;19.43;10.23;;;11.10;99.90;;;;;;4998790;28;20563;-69
2023/02/18 03:21:23;;;;;;;9.03;5.83;;;11.10;99.90;;;;;;4964108;28;20471;-68
2023/02/18 03:23:56;;;;;;;14.50;8.70;;;11.10;99.90;;;;;;4995723;28;20451;-69
2023/02/18 03:26:29;;;;;;;6.70;3.00;;;11.20;99.90;;;;;;4996912;28;20452;-67
2023/02/18 03:28:59;;;;;;;21.60;10.50;;;11.20;99.90;;;;;;4991661;28;20432;-68
2023/02/18 03:31:32;;;;;;;20.27;9.50;;;11.20;99.90;;;;;;4997017;28;20483;-69
2023/02/18 03:34:03;;;;;;;12.27;6.17;;;11.20;99.90;;;;;;4993896;28;20450;-71
2023/02/18 03:36:32;;;;;;;18.20;10.00;;;11.10;99.90;;;;;;4995463;28;20491;-69
2023/02/18 03:39:05;;;;;;;21.43;8.63;;;11.10;99.90;;;;;;5009322;28;20424;-69
2023/02/18 03:41:35;;;;;;;20.80;10.60;;;11.10;99.90;;;;;;5004560;28;20584;-68
2023/02/18 03:44:10;;;;;;;19.37;9.23;;;11.10;99.90;;;;;;4997225;28;20519;-69
2023/02/18 03:46:39;;;;;;;10.77;6.97;;;11.10;99.90;;;;;;4985731;28;20543;-70
2023/02/18 03:49:07;;;;;;;20.40;10.47;;;11.20;99.90;;;;;;4991504;28;20547;-69
2023/02/18 03:51:34;;;;;;;28.07;10.80;;;11.10;99.90;;;;;;4993513;28;20541;-68
2023/02/18 03:54:05;;;;;;;27.10;11.40;;;11.10;99.90;;;;;;4987921;28;20460;-70
2023/02/18 03:56:33;;;;;;;19.20;9.77;;;11.10;99.90;;;;;;4991374;28;20497;-69
2023/02/18 03:59:01;;;;;;;16.90;9.40;;;11.20;99.90;;;;;;4999512;28;20473;-70
2023/02/18 04:01:28;;;;;;;19.90;9.90;;;11.20;99.90;;;;;;4990066;28;20446;-69
2023/02/18 04:03:55;;;;;;;20.60;7.80;;;11.20;99.90;;;;;;4988603;28;20467;-69
2023/02/18 04:06:22;;;;;;;11.67;5.50;;;11.10;99.90;;;;;;4985237;28;20570;-70
2023/02/18 04:08:49;;;;;;;23.60;11.67;;;11.10;99.90;;;;;;4988017;28;20616;-69
2023/02/18 04:11:18;;;;;;;9.13;6.47;;;11.10;99.90;;;;;;4986474;28;20559;-70
2023/02/18 04:13:45;;;;;;;21.23;11.17;;;11.10;99.90;;;;;;4979145;28;20535;-71
2023/02/18 04:16:12;;;;;;;15.43;8.57;;;11.00;99.90;;;;;;4993928;28;20528;-69
2023/02/18 04:18:39;;;;;;;10.27;7.23;;;11.10;99.90;;;;;;4985042;28;20473;-70
2023/02/18 04:21:09;;;;;;;17.90;7.23;;;11.00;99.90;;;;;;4983371;28;20484;-68
2023/02/18 04:23:36;;;;;;;14.60;8.27;;;11.10;99.90;;;;;;4987298;28;20876;-68
2023/02/18 04:26:04;;;;;;;15.47;8.10;;;11.10;99.90;;;;;;4989102;28;20977;-68
2023/02/18 04:28:32;;;;;;;18.10;8.80;;;11.10;99.90;;;;;;4993566;28;20483;-69
2023/02/18 04:30:59;;;;;;;22.07;9.63;;;11.10;99.90;;;;;;4986312;28;20492;-70
2023/02/18 04:33:26;;;;;;;16.07;7.83;;;11.00;99.90;;;;;;4981601;28;20459;-70
2023/02/18 04:35:53;;;;;;;20.97;7.37;;;11.10;99.90;;;;;;4972804;28;20457;-71
2023/02/18 04:38:20;;;;;;;17.97;10.27;;;11.10;99.90;;;;;;4981191;28;20461;-69
2023/02/18 04:40:47;;;;;;;18.17;7.53;;;11.20;99.90;;;;;;4987976;28;20552;-68
2023/02/18 04:43:13;;;;;;;26.90;10.53;;;11.10;99.90;;;;;;4984658;28;22900;-70
2023/02/18 04:45:45;;;;;;;13.53;6.40;;;11.10;99.90;;;;;;4979558;28;21005;-69
2023/02/18 04:48:12;;;;;;;24.80;7.60;;;11.10;99.90;;;;;;4986386;28;20958;-70
2023/02/18 04:50:39;;;;;;;14.20;6.40;;;11.10;99.90;;;;;;4974742;28;20600;-71
2023/02/18 04:53:06;;;;;;;14.53;8.30;;;11.00;99.90;;;;;;4989166;28;20505;-71
2023/02/18 04:55:33;;;;;;;10.30;7.07;;;11.10;99.90;;;;;;4984483;28;20468;-71
2023/02/18 04:58:00;;;;;;;6.10;4.60;;;11.10;99.90;;;;;;4999311;28;20456;-71
2023/02/18 05:00:28;;;;;;;7.80;4.43;;;11.00;99.90;;;;;;4993942;28;20428;-70
2023/02/18 05:02:56;;;;;;;15.17;6.40;;;11.00;99.90;;;;;;4997444;28;20492;-71
2023/02/18 05:05:23;;;;;;;16.13;7.00;;;11.00;99.90;;;;;;4995044;28;20555;-70
2023/02/18 05:07:50;;;;;;;12.63;6.43;;;11.00;99.90;;;;;;4991063;28;20949;-70
2023/02/18 05:10:18;;;;;;;7.57;4.33;;;11.00;99.90;;;;;;4987516;28;20489;-70
2023/02/18 05:12:45;;;;;;;6.50;3.27;;;11.00;99.90;;;;;;4975444;28;20839;-69
2023/02/18 05:15:12;;;;;;;5.80;3.30;;;11.00;99.90;;;;;;4975148;28;20847;-68
2023/02/18 05:17:39;;;;;;;7.90;4.23;;;10.90;99.90;;;;;;4987687;28;20613;-69
2023/02/18 05:20:09;;;;;;;6.70;3.50;;;10.90;99.90;;;;;;4978273;28;20464;-69
2023/02/18 05:22:42;;;;;;;3.70;1.40;;;11.00;99.90;;;;;;4979101;28;20471;-70
2023/02/18 05:25:08;;;;;;;3.33;3.03;;;11.00;99.90;;;;;;4979594;28;20914;-70
2023/02/18 05:27:35;;;;;;;4.27;3.47;;;10.90;99.90;;;;;;4993414;28;20470;-71
2023/02/18 05:30:04;;;;;;;3.03;2.40;;;10.90;99.90;;;;;;4995820;28;20535;-70
2023/02/18 05:32:30;;;;;;;6.50;3.33;;;10.80;99.90;;;;;;5003716;28;20436;-70
2023/02/18 05:34:57;;;;;;;6.70;2.70;;;10.90;99.90;;;;;;5001600;28;20557;-70
2023/02/18 05:37:25;;;;;;;2.40;1.60;;;10.90;99.90;;;;;;4994908;28;20529;-70
2023/02/18 05:39:52;;;;;;;3.57;1.77;;;10.90;99.90;;;;;;5003749;28;20451;-70
2023/02/18 05:42:22;;;;;;;4.87;2.50;;;10.90;99.90;;;;;;4999837;28;20542;-70
2023/02/18 05:44:49;;;;;;;2.17;1.70;;;10.90;99.90;;;;;;4994741;28;20432;-70
2023/02/18 05:47:21;;;;;;;1.77;1.60;;;10.80;99.90;;;;;;5001594;28;21134;-69
2023/02/18 05:49:49;;;;;;;1.83;1.27;;;10.90;99.90;;;;;;4993630;28;20488;-70
2023/02/18 05:52:17;;;;;;;1.87;1.20;;;10.70;99.90;;;;;;4995214;28;20437;-70
2023/02/18 05:54:45;;;;;;;1.63;1.23;;;10.70;99.90;;;;;;4999312;28;20454;-70
2023/02/18 05:57:14;;;;;;;2.10;1.73;;;10.70;99.90;;;;;;5004238;28;20476;-70
2023/02/18 05:59:43;;;;;;;2.13;1.90;;;10.80;99.90;;;;;;4995686;28;20544;-68
2023/02/18 06:02:10;;;;;;;3.23;1.70;;;10.80;99.90;;;;;;5012009;28;21194;-68
2023/02/18 06:04:38;;;;;;;3.90;2.07;;;10.80;99.90;;;;;;5001308;28;20466;-69
2023/02/18 06:07:07;;;;;;;3.63;1.87;;;10.80;99.90;;;;;;4998424;28;20638;-70
2023/02/18 06:09:35;;;;;;;3.90;2.27;;;10.70;99.90;;;;;;5005512;28;20808;-68
2023/02/18 06:12:04;;;;;;;6.70;2.90;;;10.80;99.90;;;;;;5010228;28;20488;-68
2023/02/18 06:14:30;;;;;;;3.80;2.10;;;10.70;99.90;;;;;;4997521;28;20558;-69
2023/02/18 06:16:57;;;;;;;2.70;1.87;;;10.80;99.90;;;;;;5000870;28;20476;-70
2023/02/18 06:19:24;;;;;;;2.67;2.00;;;10.80;99.90;;;;;;4999884;28;20479;-69
2023/02/18 06:21:51;;;;;;;5.87;3.70;;;10.70;99.90;;;;;;4999813;28;20532;-70
2023/02/18 06:24:18;;;;;;;5.97;3.13;;;10.70;99.90;;;;;;5001052;28;20465;-70
2023/02/18 06:26:49;;;;;;;6.90;3.43;;;10.70;99.90;;;;;;4997582;28;20596;-69
2023/02/18 06:29:17;;;;;;;6.60;3.80;;;10.70;99.90;;;;;;5001265;28;20468;-69
2023/02/18 06:31:44;;;;;;;6.30;4.27;;;10.70;99.90;;;;;;4999351;28;20553;-70
2023/02/18 06:34:11;;;;;;;12.10;4.17;;;10.80;99.90;;;;;;5000256;28;20493;-70
2023/02/18 06:36:38;;;;;;;7.57;4.20;;;10.70;99.90;;;;;;4992873;28;20886;-69
2023/02/18 06:39:06;;;;;;;7.03;3.77;;;10.70;99.90;;;;;;4994566;28;20461;-69
2023/02/18 06:41:33;;;;;;;6.80;3.40;;;10.70;99.90;;;;;;4999743;28;20455;-70
2023/02/18 06:44:00;;;;;;;6.83;3.37;;;10.70;99.90;;;;;;5001571;28;20516;-70
2023/02/18 06:46:28;;;;;;;9.80;3.53;;;10.70;99.90;;;;;;4998946;28;20522;-70
2023/02/18 06:48:55;;;;;;;8.13;4.67;;;10.70;99.90;;;;;;4998271;28;20465;-70
2023/02/18 06:51:22;;;;;;;6.37;5.37;;;10.70;99.90;;;;;;4997388;28;20482;-70
2023/02/18 06:53:49;;;;;;;6.23;4.07;;;10.70;99.90;;;;;;5002178;28;20908;-70
2023/02/18 06:56:16;;;;;;;5.40;4.47;;;10.70;99.90;;;;;;5008544;28;20544;-70
2023/02/18 06:58:43;;;;;;;8.27;4.00;;;10.60;99.90;;;;;;5001675;28;20462;-70
2023/02/18 07:01:11;;;;;;;7.10;3.70;;;10.60;99.90;;;;;;5003452;28;20495;-70
2023/02/18 07:03:39;;;;;;;9.00;5.43;;;10.70;99.90;;;;;;5007753;28;20524;-70
2023/02/18 07:06:07;;;;;;;7.30;4.53;;;10.70;99.90;;;;;;5022137;28;20427;-70
2023/02/18 07:08:35;;;;;;;9.03;4.27;;;10.60;99.90;;;;;;5001702;28;20918;-70
2023/02/18 07:11:01;;;;;;;5.63;3.10;;;10.60;99.90;;;;;;5003565;28;20459;-70
2023/02/18 07:13:28;;;;;;;5.33;3.93;;;10.70;99.90;;;;;;4999563;28;20469;-70
2023/02/18 07:15:55;;;;;;;5.97;4.20;;;10.60;99.90;;;;;;4997720;28;20954;-70
2023/02/18 07:18:22;;;;;;;6.90;4.30;;;10.60;99.90;;;;;;5000551;28;20473;-70
2023/02/18 07:20:51;;;;;;;3.43;2.47;;;10.60;99.90;;;;;;5001694;28;21025;-70
2023/02/18 07:23:18;;;;;;;7.73;4.20;;;10.60;99.90;;;;;;5006446;28;20477;-69
2023/02/18 07:25:45;;;;;;;6.43;4.13;;;10.60;99.90;;;;;;5004648;28;20443;-70
2023/02/18 07:28:12;;;;;;;5.00;3.20;;;10.50;99.90;;;;;;4998604;28;20495;-69
2023/02/18 07:30:39;;;;;;;5.00;3.50;;;10.60;99.90;;;;;;5003622;28;21015;-69
2023/02/18 07:33:06;;;;;;;6.33;4.30;;;10.60;99.90;;;;;;5006902;28;20817;-69
2023/02/18 07:35:33;;;;;;;8.37;5.00;;;10.60;99.90;;;;;;4999646;28;21060;-69
2023/02/18 07:38:02;;;;;;;6.87;4.77;;;10.60;99.90;;;;;;5001093;28;20485;-70
2023/02/18 07:40:29;;;;;;;6.70;3.27;;;10.60;99.90;;;;;;5001996;28;20437;-70
2023/02/18 07:42:56;;;;;;;6.97;5.27;;;10.60;99.90;;;;;;5003160;28;20481;-70
2023/02/18 07:45:22;;;;;;;6.63;4.03;;;10.60;99.90;;;;;;4996343;28;20482;-71
2023/02/18 07:47:49;;;;;;;5.67;3.27;;;10.60;99.90;;;;;;5004501;28;20981;-70
2023/02/18 07:50:16;;;;;;;5.10;3.03;;;10.60;99.90;;;;;;4997516;28;20469;-70
2023/02/18 07:52:43;;;;;;;7.27;2.80;;;10.60;99.90;;;;;;5005081;28;20549;-70
2023/02/18 07:55:19;;;;;;;3.10;2.80;;;10.60;99.90;;;;;;4998171;28;20553;-68
2023/02/18 07:57:59;;;;;;;6.33;3.20;;;10.50;99.90;;;;;;4996307;28;20460;-71
2023/02/18 08:00:26;;;;;;;5.47;3.40;;;10.60;99.90;;;;;;4971801;28;20491;-71
2023/02/18 08:02:53;;;;;;;6.63;4.80;;;10.60;99.90;;;;;;5003800;28;20548;-71
2023/02/18 08:05:26;;;;;;;2.73;1.90;;;10.60;99.90;;;;;;4999476;28;20837;-71
2023/02/18 08:07:54;;;;;;;5.87;2.97;;;10.60;99.90;;;;;;4991603;28;21060;-71
2023/02/18 08:10:23;;;;;;;9.60;3.60;;;10.60;99.90;;;;;;4997206;28;20455;-71
2023/02/18 08:12:50;;;;;;;4.10;1.50;;;10.60;99.90;;;;;;4999847;28;20552;-70
2023/02/18 08:15:16;;;;;;;4.40;2.90;;;10.60;99.90;;;;;;5005373;28;20451;-71
2023/02/18 08:17:44;;;;;;;7.83;2.50;;;10.50;99.90;;;;;;5007533;28;20545;-71
2023/02/18 08:20:12;;;;;;;4.13;2.90;;;10.60;99.90;;;;;;5003683;28;20469;-71
2023/02/18 08:22:39;;;;;;;5.00;2.90;;;10.50;99.90;;;;;;5005390;28;20465;-71
2023/02/18 08:25:06;;;;;;;4.40;2.07;;;10.60;99.90;;;;;;4999077;28;20484;-70
2023/02/18 08:27:35;;;;;;;4.00;2.20;;;10.60;99.90;;;;;;4998730;28;20501;-70
2023/02/18 08:30:02;;;;;;;2.00;1.40;;;10.70;99.90;;;;;;5000066;28;20547;-70
2023/02/18 08:32:29;;;;;;;1.33;1.00;;;10.70;99.90;;;;;;5001646;28;21207;-71
2023/02/18 08:34:56;;;;;;;3.10;1.40;;;10.70;99.90;;;;;;5006076;28;20436;-71
2023/02/18 08:37:24;;;;;;;2.60;1.50;;;10.70;99.90;;;;;;4999784;28;20513;-71
2023/02/18 08:39:51;;;;;;;3.20;1.80;;;10.70;99.90;;;;;;5000138;28;20540;-72
2023/02/18 08:42:18;;;;;;;1.67;1.57;;;10.70;99.90;;;;;;4995261;28;21022;-70
2023/02/18 08:44:46;;;;;;;2.10;1.60;;;10.70;99.90;;;;;;5004012;28;20558;-69
2023/02/18 08:47:13;;;;;;;5.03;2.60;;;10.70;99.90;;;;;;4999329;28;21037;-71
2023/02/18 08:49:40;;;;;;;1.67;1.37;;;10.60;99.90;;;;;;4999912;28;20548;-71
2023/02/18 08:52:07;;;;;;;2.40;2.20;;;10.60;99.90;;;;;;4997408;28;20510;-70
2023/02/18 08:54:34;;;;;;;3.00;2.47;;;10.60;99.90;;;;;;5000942;28;20519;-71
2023/02/18 08:57:01;;;;;;;4.20;2.30;;;10.60;99.90;;;;;;5001941;28;20481;-71
2023/02/18 08:59:31;;;;;;;2.83;2.17;;;10.60;99.90;;;;;;5003130;28;20543;-71
2023/02/18 09:01:59;;;;;;;4.73;2.83;;;10.70;99.90;;;;;;4999939;28;20889;-71
2023/02/18 09:04:26;;;;;;;2.47;1.63;;;10.70;99.90;;;;;;4997451;28;20440;-71
2023/02/18 09:06:53;;;;;;;2.07;1.30;;;10.60;99.90;;;;;;4994176;28;20539;-71
2023/02/18 09:09:20;;;;;;;3.20;1.83;;;10.50;99.90;;;;;;5004687;28;20891;-71
2023/02/18 09:11:47;;;;;;;2.10;1.33;;;10.40;99.90;;;;;;4999286;28;20856;-71
2023/02/18 09:14:15;;;;;;;2.00;1.80;;;10.40;99.90;;;;;;5005113;28;20465;-70
2023/02/18 09:16:43;;;;;;;2.30;2.10;;;10.40;99.90;;;;;;4998071;28;20755;-71
2023/02/18 09:19:11;;;;;;;7.57;3.10;;;10.30;99.90;;;;;;4997826;28;20470;-71
2023/02/18 09:21:38;;;;;;;3.90;2.37;;;10.30;99.90;;;;;;4999260;28;20532;-72
2023/02/18 09:24:06;;;;;;;2.50;1.80;;;10.30;99.90;;;;;;4998919;28;20460;-70
2023/02/18 09:26:33;;;;;;;3.93;2.67;;;10.30;99.90;;;;;;4998877;28;20569;-71
2023/02/18 09:29:01;;;;;;;3.20;2.10;;;10.30;99.90;;;;;;5005374;28;20480;-69
2023/02/18 09:31:28;;;;;;;4.90;3.10;;;10.30;99.90;;;;;;5001651;28;20492;-70
2023/02/18 09:33:57;;;;;;;5.93;3.50;;;10.30;99.90;;;;;;5003436;28;20450;-70
2023/02/18 09:36:29;;;;;;;6.73;3.10;;;10.30;99.90;;;;;;5000969;28;20573;-71
2023/02/18 09:38:56;;;;;;;8.07;4.57;;;10.40;99.90;;;;;;4998070;28;20557;-70
2023/02/18 09:41:30;;;;;;;3.60;2.63;;;10.40;99.90;;;;;;5004826;28;20439;-71
2023/02/18 09:44:00;;;;;;;7.70;2.33;;;10.50;99.90;;;;;;5004777;28;20557;-71
2023/02/18 09:46:31;;;;;;;2.40;2.20;;;10.50;99.90;;;;;;5002756;28;20895;-71
2023/02/18 09:49:03;;;;;;;4.70;1.53;;;10.40;99.90;;;;;;5001989;28;20508;-70
2023/02/18 09:51:33;;;;;;;5.43;2.43;;;10.40;99.90;;;;;;4999485;28;20956;-70
2023/02/18 09:54:00;;;;;;;9.50;2.27;;;10.40;99.90;;;;;;5002009;28;20542;-71
2023/02/18 09:56:31;;;;;;;4.43;3.23;;;10.30;99.90;;;;;;4997117;28;20588;-71
2023/02/18 09:59:00;;;;;;;3.40;2.03;;;10.30;99.90;;;;;;4985608;28;20484;-71
2023/02/18 10:01:32;;;;;;;5.30;3.40;;;10.20;99.90;;;;;;4998067;28;20457;-71
2023/02/18 10:04:10;;;;;;;12.53;3.47;;;10.30;99.90;;;;;;5002101;28;20544;-71
2023/02/18 10:06:39;;;;;;;10.70;3.80;;;10.30;99.90;;;;;;4997276;28;20996;-72
2023/02/18 10:09:20;;;;;;;11.23;4.03;;;10.20;99.90;;;;;;4999540;28;20536;-70
2023/02/18 10:11:51;;;;;;;12.20;3.10;;;10.30;99.90;;;;;;5001381;28;20477;-70
2023/02/18 10:14:19;;;;;;;2.20;1.60;;;10.30;99.90;;;;;;5001415;28;20449;-70
2023/02/18 10:16:47;;;;;;;4.80;2.87;;;10.30;99.90;;;;;;5000289;28;20500;-71
2023/02/18 10:19:22;;;;;;;9.17;2.93;;;10.30;99.90;;;;;;4989677;28;20785;-71
2023/02/18 10:21:53;;;;;;;2.63;1.93;;;10.40;99.90;;;;;;4970227;28;20488;-72
2023/02/18 10:24:31;;;;;;;4.00;1.90;;;10.40;99.90;;;;;;4985010;28;20429;-72
2023/02/18 10:26:59;;;;;;;9.30;3.20;;;10.40;99.90;;;;;;4998802;28;20490;-70
2023/02/18 10:29:29;;;;;;;5.07;2.90;;;10.40;99.90;;;;;;4994078;28;20552;-70
2023/02/18 10:31:59;;;;;;;6.93;3.30;;;10.40;99.90;;;;;;4993113;28;20473;-71
2023/02/18 10:34:40;;;;;;;4.10;3.27;;;10.40;99.90;;;;;;4998291;28;21058;-69
2023/02/18 10:37:31;;;;;;;3.00;2.77;;;10.40;99.90;;;;;;5006860;28;21001;-69
2023/02/18 10:40:11;;;;;;;2.97;2.50;;;10.40;99.90;;;;;;4993277;28;20462;-71
2023/02/18 10:42:46;;;;;;;2.80;2.60;;;10.30;99.90;;;;;;5000617;28;21149;-71
2023/02/18 10:45:21;;;;;;;4.53;2.60;;;10.20;99.90;;;;;;4992931;28;20519;-70
2023/02/18 10:47:58;;;;;;;2.73;2.47;;;10.20;99.90;;;;;;4995083;28;20560;-71
2023/02/18 10:50:29;;;;;;;3.73;2.97;;;10.30;99.90;;;;;;5003545;28;20519;-70
2023/02/18 10:53:02;;;;;;;5.23;3.50;;;10.40;99.90;;;;;;5005411;28;20483;-71
2023/02/18 10:55:37;;;;;;;5.87;3.53;;;10.20;99.90;;;;;;5001348;28;20850;-71
2023/02/18 10:58:04;;;;;;;4.20;2.70;;;10.20;99.90;;;;;;5003372;28;20545;-70
2023/02/18 11:00:39;;;;;;;6.60;2.80;;;10.20;99.90;;;;;;5007137;28;20544;-71
2023/02/18 11:03:16;;;;;;;2.27;1.73;;;10.20;99.90;;;;;;5004812;28;20438;-70
2023/02/18 11:05:44;;;;;;;7.73;3.37;;;10.20;99.90;;;;;;4999710;28;20456;-71
2023/02/18 11:08:18;;;;;;;2.10;1.50;;;10.20;99.90;;;;;;5005770;28;20464;-71
2023/02/18 11:10:46;;;;;;;3.87;2.37;;;10.10;99.90;;;;;;5004769;28;20501;-71
2023/02/18 11:13:17;;;;;;;8.83;2.70;;;10.00;99.90;;;;;;5003179;28;20513;-71
2023/02/18 11:15:56;;;;;;;4.07;3.23;;;10.00;99.90;;;;;;5009771;28;20446;-71
2023/02/18 11:18:30;;;;;;;4.20;3.00;;;9.90;99.90;;;;;;4996343;28;21137;-71
2023/02/18 11:21:02;;;;;;;22.10;4.03;;;9.90;99.90;;;;;;5001490;28;20466;-71
2023/02/18 11:23:30;;;;;;;5.50;3.90;;;10.00;99.90;;;;;;5003623;28;20482;-70
2023/02/18 11:26:01;;;;;;;14.93;3.83;;;10.00;99.90;;;;;;5002027;28;21012;-69
2023/02/18 11:28:41;;;;;;;2.07;1.97;;;9.90;99.90;;;;;;4992173;28;20497;-71
2023/02/18 11:31:10;;;;;;;9.50;3.70;;;9.90;99.90;;;;;;5001458;28;20462;-71
2023/02/18 11:33:41;;;;;;;13.10;4.53;;;10.00;99.90;;;;;;5001592;28;20558;-72
2023/02/18 11:36:18;;;;;;;2.97;2.77;;;10.10;99.90;;;;;;5008642;28;20483;-72
2023/02/18 11:38:49;;;;;;;8.90;4.43;;;10.10;99.90;;;;;;5006479;28;20516;-72
2023/02/18 11:41:22;;;;;;;3.50;3.20;;;10.00;99.90;;;;;;5003324;28;20460;-71
2023/02/18 11:43:51;;;;;;;9.83;4.77;;;10.10;99.90;;;;;;5004177;28;20463;-70
2023/02/18 11:46:24;;;;;;;9.07;5.00;;;10.00;99.90;;;;;;4992799;28;20519;-70
2023/02/18 11:48:52;;;;;;;10.50;4.17;;;10.00;99.90;;;;;;5001929;28;20902;-71
2023/02/18 11:51:23;;;;;;;7.10;4.93;;;10.00;99.90;;;;;;4998083;28;20568;-70
2023/02/18 11:54:04;;;;;;;9.23;5.13;;;10.00;99.90;;;;;;4998955;28;20487;-71
2023/02/18 11:56:33;;;;;;;8.43;5.47;;;10.10;99.90;;;;;;4970968;28;20481;-71
2023/02/18 11:59:03;;;;;;;3.90;2.83;;;10.10;99.90;;;;;;4999798;28;20544;-71
2023/02/18 12:01:41;;;;;;;9.23;5.37;;;10.10;99.90;;;;;;5000263;28;20455;-68
2023/02/18 12:04:13;;;;;;;7.23;4.13;;;10.10;99.90;;;;;;5007183;28;20480;-72
2023/02/18 12:06:48;;;;;;;9.93;4.20;;;10.10;99.90;;;;;;4986271;28;20569;-71
2023/02/18 12:09:28;;;;;;;7.00;5.00;;;10.20;99.90;;;;;;5000511;28;20427;-74
2023/02/18 12:11:58;;;;;;;6.30;4.03;;;10.20;99.90;;;;;;5003625;28;20492;-73
2023/02/18 12:14:27;;;;;;;6.37;4.73;;;10.20;99.90;;;;;;4999785;28;20516;-74
2023/02/18 12:17:18;;;;;;;5.87;3.97;;;10.10;99.90;;;;;;4957038;28;20618;-70
2023/02/18 12:19:59;;;;;;;5.50;3.60;;;10.00;99.90;;;;;;5001450;28;20547;-72
2023/02/18 12:22:43;;;;;;;6.60;4.13;;;10.10;99.90;;;;;;5004030;28;20919;-70
2023/02/18 12:25:24;;;;;;;6.13;3.80;;;10.10;99.90;;;;;;5002881;28;20424;-71
2023/02/18 12:28:08;;;;;;;9.67;4.93;;;10.10;99.90;;;;;;5001980;28;20457;-70
2023/02/18 12:30:58;;;;;;;9.93;6.00;;;10.10;99.90;;;;;;5009216;28;20490;-71
2023/02/18 12:33:34;;;;;;;4.80;3.20;;;10.20;99.90;;;;;;4991581;28;20563;-72
2023/02/18 12:36:13;;;;;;;5.63;3.20;;;10.20;99.90;;;;;;5000910;28;20987;-72
2023/02/18 12:39:11;;;;;;;5.77;3.20;;;10.20;99.90;;;;;;4995436;28;20516;-71
2023/02/18 12:41:55;;;;;;;7.67;4.00;;;10.20;99.90;;;;;;4993511;28;20465;-71
2023/02/18 12:44:36;;;;;;;11.20;6.10;;;10.10;99.90;;;;;;4995332;28;20546;-71
2023/02/18 12:47:39;;;;;;;8.00;4.27;;;10.10;99.90;;;;;;5001707;28;20445;-72
2023/02/18 12:50:30;;;;;;;10.60;7.07;;;10.10;99.90;;;;;;5000379;28;20549;-71
2023/02/18 12:53:23;;;;;;;10.27;4.90;;;10.20;99.90;;;;;;4986090;28;20452;-71
2023/02/18 12:56:22;;;;;;;6.13;3.87;;;10.30;99.90;;;;;;5001296;28;21012;-71
2023/02/18 12:58:57;;;;;;;9.50;6.10;;;10.30;99.90;;;;;;4978883;28;20436;-71
2023/02/18 13:01:36;;;;;;;7.07;3.80;;;10.20;99.90;;;;;;5005967;28;20985;-71